sensor_id;sensor_type;location;lat;lon;timestamp;temperature;humidity
80232;DHT22;70197;42.124;24.752;2023-07-13T00:00:12;25.60;44.00
80232;DHT22;70197;42.124;24.752;2023-07-13T00:02:42;25.50;44.10
80232;DHT22;70197;42.124;24.752;2023-07-13T00:05:08;25.50;43.80
80232;DHT22;70197;42.124;24.752;2023-07-13T00:07:34;25.40;43.70
80232;DHT22;70197;42.124;24.752;2023-07-13T00:10:00;25.40;43.60
80232;DHT22;70197;42.124;24.752;2023-07-13T00:12:29;25.40;43.70
80232;DHT22;70197;42.124;24.752;2023-07-13T00:15:00;25.40;44.20
80232;DHT22;70197;42.124;24.752;2023-07-13T00:17:27;25.40;44.50
80232;DHT22;70197;42.124;24.752;2023-07-13T00:19:53;25.40;44.50
80232;DHT22;70197;42.124;24.752;2023-07-13T00:22:20;25.30;44.50
80232;DHT22;70197;42.124;24.752;2023-07-13T00:24:47;25.30;44.70
80232;DHT22;70197;42.124;24.752;2023-07-13T00:27:15;25.30;44.70
80232;DHT22;70197;42.124;24.752;2023-07-13T00:29:40;25.30;44.80
80232;DHT22;70197;42.124;24.752;2023-07-13T00:32:07;25.20;44.60
80232;DHT22;70197;42.124;24.752;2023-07-13T00:34:34;25.20;44.80
80232;DHT22;70197;42.124;24.752;2023-07-13T00:37:00;25.20;45.10
80232;DHT22;70197;42.124;24.752;2023-07-13T00:39:26;25.10;45.20
80232;DHT22;70197;42.124;24.752;2023-07-13T00:41:52;25.20;45.30
80232;DHT22;70197;42.124;24.752;2023-07-13T00:44:18;25.10;45.30
80232;DHT22;70197;42.124;24.752;2023-07-13T00:46:45;25.00;45.10
80232;DHT22;70197;42.124;24.752;2023-07-13T00:49:15;25.00;44.90
80232;DHT22;70197;42.124;24.752;2023-07-13T00:54:22;25.00;45.00
80232;DHT22;70197;42.124;24.752;2023-07-13T00:56:51;25.00;45.20
80232;DHT22;70197;42.124;24.752;2023-07-13T00:59:19;24.90;45.30
80232;DHT22;70197;42.124;24.752;2023-07-13T01:01:45;24.90;45.50
80232;DHT22;70197;42.124;24.752;2023-07-13T01:04:11;24.90;45.60
80232;DHT22;70197;42.124;24.752;2023-07-13T01:06:40;24.90;45.70
80232;DHT22;70197;42.124;24.752;2023-07-13T01:09:08;24.90;45.90
80232;DHT22;70197;42.124;24.752;2023-07-13T01:11:33;24.90;45.90
80232;DHT22;70197;42.124;24.752;2023-07-13T01:14:01;24.80;45.80
80232;DHT22;70197;42.124;24.752;2023-07-13T01:16:32;24.80;45.90
80232;DHT22;70197;42.124;24.752;2023-07-13T01:18:59;24.90;46.00
80232;DHT22;70197;42.124;24.752;2023-07-13T01:21:27;24.80;46.00
80232;DHT22;70197;42.124;24.752;2023-07-13T01:23:53;24.80;46.30
80232;DHT22;70197;42.124;24.752;2023-07-13T01:26:19;24.80;46.40
80232;DHT22;70197;42.124;24.752;2023-07-13T01:28:45;24.70;46.30
80232;DHT22;70197;42.124;24.752;2023-07-13T01:31:11;24.70;46.30
80232;DHT22;70197;42.124;24.752;2023-07-13T01:33:39;24.70;46.30
80232;DHT22;70197;42.124;24.752;2023-07-13T01:36:06;24.70;46.40
80232;DHT22;70197;42.124;24.752;2023-07-13T01:38:32;24.60;47.00
80232;DHT22;70197;42.124;24.752;2023-07-13T01:40:57;24.60;46.90
80232;DHT22;70197;42.124;24.752;2023-07-13T01:43:23;24.60;47.00
80232;DHT22;70197;42.124;24.752;2023-07-13T01:45:49;24.60;47.10
80232;DHT22;70197;42.124;24.752;2023-07-13T01:48:14;24.60;47.10
80232;DHT22;70197;42.124;24.752;2023-07-13T01:50:40;24.50;46.70
80232;DHT22;70197;42.124;24.752;2023-07-13T01:53:06;24.40;46.90
80232;DHT22;70197;42.124;24.752;2023-07-13T01:55:32;24.30;46.70
80232;DHT22;70197;42.124;24.752;2023-07-13T01:57:57;24.40;46.90
80232;DHT22;70197;42.124;24.752;2023-07-13T02:00:23;24.30;45.70
80232;DHT22;70197;42.124;24.752;2023-07-13T02:02:50;24.30;46.10
80232;DHT22;70197;42.124;24.752;2023-07-13T02:05:16;24.40;46.80
80232;DHT22;70197;42.124;24.752;2023-07-13T02:07:42;24.40;47.20
80232;DHT22;70197;42.124;24.752;2023-07-13T02:10:09;24.40;47.20
80232;DHT22;70197;42.124;24.752;2023-07-13T02:12:36;24.40;47.10
80232;DHT22;70197;42.124;24.752;2023-07-13T02:15:02;24.40;47.10
80232;DHT22;70197;42.124;24.752;2023-07-13T02:17:28;24.40;46.30
80232;DHT22;70197;42.124;24.752;2023-07-13T02:19:54;24.30;47.10
80232;DHT22;70197;42.124;24.752;2023-07-13T02:22:21;24.30;47.20
80232;DHT22;70197;42.124;24.752;2023-07-13T02:24:48;24.30;47.10
80232;DHT22;70197;42.124;24.752;2023-07-13T02:27:14;24.20;47.30
80232;DHT22;70197;42.124;24.752;2023-07-13T02:29:39;24.30;47.40
80232;DHT22;70197;42.124;24.752;2023-07-13T02:32:05;24.20;47.70
80232;DHT22;70197;42.124;24.752;2023-07-13T02:34:31;24.20;48.30
80232;DHT22;70197;42.124;24.752;2023-07-13T02:36:57;24.10;48.50
80232;DHT22;70197;42.124;24.752;2023-07-13T02:39:23;24.10;48.00
80232;DHT22;70197;42.124;24.752;2023-07-13T02:41:48;24.10;48.30
80232;DHT22;70197;42.124;24.752;2023-07-13T02:44:14;24.10;48.50
80232;DHT22;70197;42.124;24.752;2023-07-13T02:46:40;24.10;48.80
80232;DHT22;70197;42.124;24.752;2023-07-13T02:49:06;24.10;48.50
80232;DHT22;70197;42.124;24.752;2023-07-13T02:55:24;24.10;48.70
80232;DHT22;70197;42.124;24.752;2023-07-13T02:57:49;24.10;48.70
80232;DHT22;70197;42.124;24.752;2023-07-13T03:00:16;24.00;50.00
80232;DHT22;70197;42.124;24.752;2023-07-13T03:02:41;24.10;49.00
80232;DHT22;70197;42.124;24.752;2023-07-13T03:05:07;24.00;49.10
80232;DHT22;70197;42.124;24.752;2023-07-13T03:07:36;24.00;49.20
80232;DHT22;70197;42.124;24.752;2023-07-13T03:10:02;23.90;49.30
80232;DHT22;70197;42.124;24.752;2023-07-13T03:12:28;23.90;49.10
80232;DHT22;70197;42.124;24.752;2023-07-13T03:17:56;23.90;49.40
80232;DHT22;70197;42.124;24.752;2023-07-13T03:20:22;24.00;49.70
80232;DHT22;70197;42.124;24.752;2023-07-13T03:22:48;23.90;49.70
80232;DHT22;70197;42.124;24.752;2023-07-13T03:25:13;24.00;49.60
80232;DHT22;70197;42.124;24.752;2023-07-13T03:27:39;23.90;49.80
80232;DHT22;70197;42.124;24.752;2023-07-13T03:30:06;23.90;49.50
80232;DHT22;70197;42.124;24.752;2023-07-13T03:32:32;23.90;49.70
80232;DHT22;70197;42.124;24.752;2023-07-13T03:34:58;23.90;49.70
80232;DHT22;70197;42.124;24.752;2023-07-13T03:37:24;23.80;50.20
80232;DHT22;70197;42.124;24.752;2023-07-13T03:39:49;23.90;50.00
80232;DHT22;70197;42.124;24.752;2023-07-13T03:42:15;23.90;50.00
80232;DHT22;70197;42.124;24.752;2023-07-13T03:44:42;24.00;50.20
80232;DHT22;70197;42.124;24.752;2023-07-13T03:47:11;24.10;50.30
80232;DHT22;70197;42.124;24.752;2023-07-13T03:49:37;24.10;50.30
80232;DHT22;70197;42.124;24.752;2023-07-13T03:52:02;24.10;50.20
80232;DHT22;70197;42.124;24.752;2023-07-13T03:54:28;24.10;50.30
80232;DHT22;70197;42.124;24.752;2023-07-13T03:56:54;24.20;50.20
80232;DHT22;70197;42.124;24.752;2023-07-13T03:59:20;24.30;50.30
80232;DHT22;70197;42.124;24.752;2023-07-13T04:01:46;24.40;50.20
80232;DHT22;70197;42.124;24.752;2023-07-13T04:04:11;24.40;50.20
80232;DHT22;70197;42.124;24.752;2023-07-13T04:06:37;24.50;49.60
80232;DHT22;70197;42.124;24.752;2023-07-13T04:09:04;24.50;49.40
80232;DHT22;70197;42.124;24.752;2023-07-13T04:11:34;24.70;49.50
80232;DHT22;70197;42.124;24.752;2023-07-13T04:14:01;24.70;49.00
80232;DHT22;70197;42.124;24.752;2023-07-13T04:16:28;24.90;49.10
80232;DHT22;70197;42.124;24.752;2023-07-13T04:18:54;25.00;50.00
80232;DHT22;70197;42.124;24.752;2023-07-13T04:21:25;25.10;49.00
80232;DHT22;70197;42.124;24.752;2023-07-13T04:23:50;25.20;49.30
80232;DHT22;70197;42.124;24.752;2023-07-13T04:26:16;25.40;49.10
80232;DHT22;70197;42.124;24.752;2023-07-13T04:28:42;25.50;49.10
80232;DHT22;70197;42.124;24.752;2023-07-13T04:31:07;25.60;48.70
80232;DHT22;70197;42.124;24.752;2023-07-13T04:33:33;25.80;48.20
80232;DHT22;70197;42.124;24.752;2023-07-13T04:35:59;25.90;47.70
80232;DHT22;70197;42.124;24.752;2023-07-13T04:38:29;26.00;48.30
80232;DHT22;70197;42.124;24.752;2023-07-13T04:40:56;26.20;47.90
80232;DHT22;70197;42.124;24.752;2023-07-13T04:43:24;26.50;47.50
80232;DHT22;70197;42.124;24.752;2023-07-13T04:45:51;26.70;47.20
80232;DHT22;70197;42.124;24.752;2023-07-13T04:48:17;26.90;46.60
80232;DHT22;70197;42.124;24.752;2023-07-13T04:50:42;27.00;45.50
80232;DHT22;70197;42.124;24.752;2023-07-13T04:53:09;27.20;45.10
80232;DHT22;70197;42.124;24.752;2023-07-13T04:55:36;27.20;45.00
80232;DHT22;70197;42.124;24.752;2023-07-13T04:58:02;27.40;44.40
80232;DHT22;70197;42.124;24.752;2023-07-13T05:00:29;27.40;44.10
80232;DHT22;70197;42.124;24.752;2023-07-13T05:02:58;27.30;45.00
80232;DHT22;70197;42.124;24.752;2023-07-13T05:05:27;27.50;43.90
80232;DHT22;70197;42.124;24.752;2023-07-13T05:07:53;27.70;43.40
80232;DHT22;70197;42.124;24.752;2023-07-13T05:10:19;27.90;42.70
80232;DHT22;70197;42.124;24.752;2023-07-13T05:12:45;28.00;42.90
80232;DHT22;70197;42.124;24.752;2023-07-13T05:15:11;28.10;43.10
80232;DHT22;70197;42.124;24.752;2023-07-13T05:17:36;28.20;42.70
80232;DHT22;70197;42.124;24.752;2023-07-13T05:20:05;28.50;42.70
80232;DHT22;70197;42.124;24.752;2023-07-13T05:22:31;28.60;41.70
80232;DHT22;70197;42.124;24.752;2023-07-13T05:24:56;28.80;41.30
80232;DHT22;70197;42.124;24.752;2023-07-13T05:27:22;29.00;40.70
80232;DHT22;70197;42.124;24.752;2023-07-13T05:29:49;29.00;40.90
80232;DHT22;70197;42.124;24.752;2023-07-13T05:32:14;29.20;40.50
80232;DHT22;70197;42.124;24.752;2023-07-13T05:34:40;29.40;40.00
80232;DHT22;70197;42.124;24.752;2023-07-13T05:37:06;29.70;39.40
80232;DHT22;70197;42.124;24.752;2023-07-13T05:39:31;29.90;39.10
80232;DHT22;70197;42.124;24.752;2023-07-13T05:41:57;30.00;38.60
80232;DHT22;70197;42.124;24.752;2023-07-13T05:44:22;30.10;38.10
80232;DHT22;70197;42.124;24.752;2023-07-13T05:46:48;30.20;38.10
80232;DHT22;70197;42.124;24.752;2023-07-13T05:49:14;30.40;38.10
80232;DHT22;70197;42.124;24.752;2023-07-13T05:51:39;30.60;37.30
80232;DHT22;70197;42.124;24.752;2023-07-13T05:54:05;30.80;37.10
80232;DHT22;70197;42.124;24.752;2023-07-13T05:56:31;31.10;37.00
80232;DHT22;70197;42.124;24.752;2023-07-13T05:58:56;31.20;36.80
80232;DHT22;70197;42.124;24.752;2023-07-13T06:01:22;31.50;36.70
80232;DHT22;70197;42.124;24.752;2023-07-13T06:03:49;31.70;36.30
80232;DHT22;70197;42.124;24.752;2023-07-13T06:06:15;31.80;35.60
80232;DHT22;70197;42.124;24.752;2023-07-13T06:08:41;32.00;35.10
80232;DHT22;70197;42.124;24.752;2023-07-13T06:11:12;32.00;35.00
80232;DHT22;70197;42.124;24.752;2023-07-13T06:13:39;32.20;35.00
80232;DHT22;70197;42.124;24.752;2023-07-13T06:16:05;32.50;34.50
80232;DHT22;70197;42.124;24.752;2023-07-13T06:18:35;32.60;34.40
80232;DHT22;70197;42.124;24.752;2023-07-13T06:21:16;32.80;33.80
80232;DHT22;70197;42.124;24.752;2023-07-13T06:23:43;32.80;33.10
80232;DHT22;70197;42.124;24.752;2023-07-13T06:26:09;32.80;32.50
80232;DHT22;70197;42.124;24.752;2023-07-13T06:28:35;33.00;32.50
80232;DHT22;70197;42.124;24.752;2023-07-13T06:31:02;33.30;32.80
80232;DHT22;70197;42.124;24.752;2023-07-13T06:33:27;33.10;32.00
80232;DHT22;70197;42.124;24.752;2023-07-13T06:35:53;33.10;31.60
80232;DHT22;70197;42.124;24.752;2023-07-13T06:38:20;33.40;31.40
80232;DHT22;70197;42.124;24.752;2023-07-13T06:40:46;33.60;30.60
80232;DHT22;70197;42.124;24.752;2023-07-13T06:43:12;33.70;30.30
80232;DHT22;70197;42.124;24.752;2023-07-13T06:45:45;33.80;30.20
80232;DHT22;70197;42.124;24.752;2023-07-13T06:48:13;34.00;30.00
80232;DHT22;70197;42.124;24.752;2023-07-13T06:50:39;34.10;30.00
80232;DHT22;70197;42.124;24.752;2023-07-13T06:53:04;34.30;29.80
80232;DHT22;70197;42.124;24.752;2023-07-13T06:55:30;34.50;28.90
80232;DHT22;70197;42.124;24.752;2023-07-13T06:57:55;34.70;29.00
80232;DHT22;70197;42.124;24.752;2023-07-13T07:00:21;34.80;28.80
80232;DHT22;70197;42.124;24.752;2023-07-13T07:02:47;34.50;28.50
80232;DHT22;70197;42.124;24.752;2023-07-13T07:05:12;34.80;28.60
80232;DHT22;70197;42.124;24.752;2023-07-13T07:07:38;35.00;28.50
80232;DHT22;70197;42.124;24.752;2023-07-13T07:10:04;35.20;28.40
80232;DHT22;70197;42.124;24.752;2023-07-13T07:12:30;35.30;28.30
80232;DHT22;70197;42.124;24.752;2023-07-13T07:14:55;35.50;27.90
80232;DHT22;70197;42.124;24.752;2023-07-13T07:17:21;35.20;27.70
80232;DHT22;70197;42.124;24.752;2023-07-13T07:19:47;35.40;27.90
80232;DHT22;70197;42.124;24.752;2023-07-13T07:22:12;35.50;28.00
80232;DHT22;70197;42.124;24.752;2023-07-13T07:24:38;35.50;28.30
80232;DHT22;70197;42.124;24.752;2023-07-13T07:27:04;35.60;28.30
80232;DHT22;70197;42.124;24.752;2023-07-13T07:29:30;35.80;27.60
80232;DHT22;70197;42.124;24.752;2023-07-13T07:31:55;35.90;27.70
80232;DHT22;70197;42.124;24.752;2023-07-13T07:34:21;35.20;27.10
80232;DHT22;70197;42.124;24.752;2023-07-13T07:36:47;35.60;27.50
80232;DHT22;70197;42.124;24.752;2023-07-13T07:39:12;35.50;28.20
80232;DHT22;70197;42.124;24.752;2023-07-13T07:41:38;36.00;27.60
80232;DHT22;70197;42.124;24.752;2023-07-13T07:44:04;36.40;26.80
80232;DHT22;70197;42.124;24.752;2023-07-13T07:46:30;35.90;27.10
80232;DHT22;70197;42.124;24.752;2023-07-13T07:48:56;36.20;27.50
80232;DHT22;70197;42.124;24.752;2023-07-13T07:51:22;36.00;28.50
80232;DHT22;70197;42.124;24.752;2023-07-13T07:53:48;36.40;27.30
80232;DHT22;70197;42.124;24.752;2023-07-13T07:56:14;36.50;26.80
80232;DHT22;70197;42.124;24.752;2023-07-13T07:58:41;36.70;26.60
80232;DHT22;70197;42.124;24.752;2023-07-13T08:01:08;37.10;26.10
80232;DHT22;70197;42.124;24.752;2023-07-13T08:03:34;37.30;25.80
80232;DHT22;70197;42.124;24.752;2023-07-13T08:06:00;36.80;26.00
80232;DHT22;70197;42.124;24.752;2023-07-13T08:08:26;37.10;26.00
80232;DHT22;70197;42.124;24.752;2023-07-13T08:10:52;37.30;26.10
80232;DHT22;70197;42.124;24.752;2023-07-13T08:13:17;37.50;26.20
80232;DHT22;70197;42.124;24.752;2023-07-13T08:15:43;37.50;25.80
80232;DHT22;70197;42.124;24.752;2023-07-13T08:18:09;37.90;26.00
80232;DHT22;70197;42.124;24.752;2023-07-13T08:20:38;38.10;25.10
80232;DHT22;70197;42.124;24.752;2023-07-13T08:23:05;38.80;24.40
80232;DHT22;70197;42.124;24.752;2023-07-13T08:25:30;39.50;24.60
80232;DHT22;70197;42.124;24.752;2023-07-13T08:27:56;39.70;24.20
80232;DHT22;70197;42.124;24.752;2023-07-13T08:30:22;40.00;23.40
80232;DHT22;70197;42.124;24.752;2023-07-13T08:32:48;39.80;23.80
80232;DHT22;70197;42.124;24.752;2023-07-13T08:35:15;40.60;23.20
80232;DHT22;70197;42.124;24.752;2023-07-13T08:37:42;41.00;22.80
80232;DHT22;70197;42.124;24.752;2023-07-13T08:40:11;42.60;22.30
80232;DHT22;70197;42.124;24.752;2023-07-13T08:42:45;45.10;19.70
80232;DHT22;70197;42.124;24.752;2023-07-13T08:45:38;47.20;17.70
80232;DHT22;70197;42.124;24.752;2023-07-13T08:48:26;49.70;16.20
80232;DHT22;70197;42.124;24.752;2023-07-13T08:51:24;51.60;14.70
80232;DHT22;70197;42.124;24.752;2023-07-13T08:53:56;53.10;13.50
80232;DHT22;70197;42.124;24.752;2023-07-13T08:56:26;54.20;12.30
80232;DHT22;70197;42.124;24.752;2023-07-13T08:59:10;55.00;11.80
80232;DHT22;70197;42.124;24.752;2023-07-13T09:04:35;56.10;11.10
80232;DHT22;70197;42.124;24.752;2023-07-13T09:09:55;55.80;12.20
80232;DHT22;70197;42.124;24.752;2023-07-13T09:15:02;54.40;12.40
80232;DHT22;70197;42.124;24.752;2023-07-13T09:17:37;53.00;12.60
80232;DHT22;70197;42.124;24.752;2023-07-13T09:22:53;51.10;13.60
80232;DHT22;70197;42.124;24.752;2023-07-13T09:25:31;50.10;13.90
80232;DHT22;70197;42.124;24.752;2023-07-13T09:28:08;49.40;14.70
80232;DHT22;70197;42.124;24.752;2023-07-13T09:33:04;48.30;15.40
80232;DHT22;70197;42.124;24.752;2023-07-13T09:35:31;47.80;15.60
80232;DHT22;70197;42.124;24.752;2023-07-13T09:38:14;47.30;15.90
80232;DHT22;70197;42.124;24.752;2023-07-13T09:41:08;46.80;16.50
80232;DHT22;70197;42.124;24.752;2023-07-13T09:43:36;46.20;17.00
80232;DHT22;70197;42.124;24.752;2023-07-13T09:46:02;45.60;17.40
80232;DHT22;70197;42.124;24.752;2023-07-13T09:48:35;44.80;19.10
80232;DHT22;70197;42.124;24.752;2023-07-13T09:51:14;44.10;18.90
80232;DHT22;70197;42.124;24.752;2023-07-13T09:53:42;43.80;19.20
80232;DHT22;70197;42.124;24.752;2023-07-13T09:56:23;43.40;19.40
80232;DHT22;70197;42.124;24.752;2023-07-13T09:58:49;43.10;19.60
80232;DHT22;70197;42.124;24.752;2023-07-13T10:01:15;42.80;19.90
80232;DHT22;70197;42.124;24.752;2023-07-13T10:03:55;42.50;19.90
80232;DHT22;70197;42.124;24.752;2023-07-13T10:06:22;42.20;20.30
80232;DHT22;70197;42.124;24.752;2023-07-13T10:08:50;41.90;20.50
80232;DHT22;70197;42.124;24.752;2023-07-13T10:11:21;41.70;21.40
80232;DHT22;70197;42.124;24.752;2023-07-13T10:14:30;41.20;21.10
80232;DHT22;70197;42.124;24.752;2023-07-13T10:16:37;40.70;21.20
80232;DHT22;70197;42.124;24.752;2023-07-13T10:19:14;40.50;21.90
80232;DHT22;70197;42.124;24.752;2023-07-13T10:21:52;40.30;22.10
80232;DHT22;70197;42.124;24.752;2023-07-13T10:24:22;40.10;22.30
80232;DHT22;70197;42.124;24.752;2023-07-13T10:29:20;39.60;22.60
80232;DHT22;70197;42.124;24.752;2023-07-13T10:31:47;39.30;22.60
80232;DHT22;70197;42.124;24.752;2023-07-13T10:34:13;39.30;22.90
80232;DHT22;70197;42.124;24.752;2023-07-13T10:36:44;39.10;23.00
80232;DHT22;70197;42.124;24.752;2023-07-13T10:39:19;38.60;22.80
80232;DHT22;70197;42.124;24.752;2023-07-13T10:41:49;38.60;23.90
80232;DHT22;70197;42.124;24.752;2023-07-13T10:44:30;38.30;23.00
80232;DHT22;70197;42.124;24.752;2023-07-13T10:47:06;38.10;22.80
80232;DHT22;70197;42.124;24.752;2023-07-13T10:49:33;38.00;24.00
80232;DHT22;70197;42.124;24.752;2023-07-13T10:52:01;38.00;24.00
80232;DHT22;70197;42.124;24.752;2023-07-13T10:54:30;37.90;24.50
80232;DHT22;70197;42.124;24.752;2023-07-13T10:57:18;37.90;23.90
80232;DHT22;70197;42.124;24.752;2023-07-13T11:00:15;37.50;25.10
80232;DHT22;70197;42.124;24.752;2023-07-13T11:02:41;37.40;25.40
80232;DHT22;70197;42.124;24.752;2023-07-13T11:05:30;37.30;24.40
80232;DHT22;70197;42.124;24.752;2023-07-13T11:10:53;37.10;24.20
80232;DHT22;70197;42.124;24.752;2023-07-13T11:18:50;36.60;25.40
80232;DHT22;70197;42.124;24.752;2023-07-13T11:21:21;36.60;25.10
80232;DHT22;70197;42.124;24.752;2023-07-13T11:24:01;36.50;25.60
80232;DHT22;70197;42.124;24.752;2023-07-13T11:31:43;36.30;25.30
80232;DHT22;70197;42.124;24.752;2023-07-13T11:34:19;35.80;25.20
80232;DHT22;70197;42.124;24.752;2023-07-13T11:36:47;35.50;26.20
80232;DHT22;70197;42.124;24.752;2023-07-13T11:39:31;35.60;26.40
80232;DHT22;70197;42.124;24.752;2023-07-13T11:42:00;35.60;26.30
80232;DHT22;70197;42.124;24.752;2023-07-13T11:44:28;35.60;26.10
80232;DHT22;70197;42.124;24.752;2023-07-13T11:47:00;35.70;25.70
80232;DHT22;70197;42.124;24.752;2023-07-13T11:49:30;35.70;26.20
80232;DHT22;70197;42.124;24.752;2023-07-13T11:51:57;35.80;26.80
80232;DHT22;70197;42.124;24.752;2023-07-13T11:54:41;35.70;26.20
80232;DHT22;70197;42.124;24.752;2023-07-13T11:57:32;35.50;26.50
80232;DHT22;70197;42.124;24.752;2023-07-13T12:00:13;35.20;25.60
80232;DHT22;70197;42.124;24.752;2023-07-13T12:02:46;35.30;26.40
80232;DHT22;70197;42.124;24.752;2023-07-13T12:05:15;35.00;25.60
80232;DHT22;70197;42.124;24.752;2023-07-13T12:07:43;34.80;26.90
80232;DHT22;70197;42.124;24.752;2023-07-13T12:12:36;35.20;27.20
80232;DHT22;70197;42.124;24.752;2023-07-13T12:15:06;35.30;26.40
80232;DHT22;70197;42.124;24.752;2023-07-13T12:17:34;35.30;26.40
80232;DHT22;70197;42.124;24.752;2023-07-13T12:20:03;35.30;26.40
80232;DHT22;70197;42.124;24.752;2023-07-13T12:22:34;35.30;26.70
80232;DHT22;70197;42.124;24.752;2023-07-13T12:25:00;35.40;25.90
80232;DHT22;70197;42.124;24.752;2023-07-13T12:27:27;35.40;25.20
80232;DHT22;70197;42.124;24.752;2023-07-13T12:30:02;35.30;25.50
80232;DHT22;70197;42.124;24.752;2023-07-13T12:32:28;35.40;26.20
80232;DHT22;70197;42.124;24.752;2023-07-13T12:35:07;35.40;26.30
80232;DHT22;70197;42.124;24.752;2023-07-13T12:37:42;35.40;26.50
80232;DHT22;70197;42.124;24.752;2023-07-13T12:40:32;35.40;26.50
80232;DHT22;70197;42.124;24.752;2023-07-13T12:42:58;35.40;25.30
80232;DHT22;70197;42.124;24.752;2023-07-13T12:45:26;35.40;25.60
80232;DHT22;70197;42.124;24.752;2023-07-13T12:47:56;35.40;25.80
80232;DHT22;70197;42.124;24.752;2023-07-13T12:50:39;35.40;26.00
80232;DHT22;70197;42.124;24.752;2023-07-13T12:53:14;35.30;25.70
80232;DHT22;70197;42.124;24.752;2023-07-13T12:55:47;35.30;25.90
80232;DHT22;70197;42.124;24.752;2023-07-13T12:58:37;35.40;26.00
80232;DHT22;70197;42.124;24.752;2023-07-13T13:01:04;35.40;25.60
80232;DHT22;70197;42.124;24.752;2023-07-13T13:03:45;35.50;25.00
80232;DHT22;70197;42.124;24.752;2023-07-13T13:08:57;35.60;24.10
80232;DHT22;70197;42.124;24.752;2023-07-13T13:11:30;35.70;24.20
80232;DHT22;70197;42.124;24.752;2023-07-13T13:13:56;35.80;24.10
80232;DHT22;70197;42.124;24.752;2023-07-13T13:18:55;36.00;24.60
80232;DHT22;70197;42.124;24.752;2023-07-13T13:21:23;36.00;24.40
80232;DHT22;70197;42.124;24.752;2023-07-13T13:23:50;35.80;23.70
80232;DHT22;70197;42.124;24.752;2023-07-13T13:26:23;35.70;23.80
80232;DHT22;70197;42.124;24.752;2023-07-13T13:28:49;35.60;24.10
80232;DHT22;70197;42.124;24.752;2023-07-13T13:31:15;35.60;24.10
80232;DHT22;70197;42.124;24.752;2023-07-13T13:33:43;35.60;24.80
80232;DHT22;70197;42.124;24.752;2023-07-13T13:36:19;35.50;25.30
80232;DHT22;70197;42.124;24.752;2023-07-13T13:38:46;35.60;25.40
80232;DHT22;70197;42.124;24.752;2023-07-13T13:41:13;35.70;25.40
80232;DHT22;70197;42.124;24.752;2023-07-13T13:43:40;35.70;24.90
80232;DHT22;70197;42.124;24.752;2023-07-13T13:46:20;35.60;25.20
80232;DHT22;70197;42.124;24.752;2023-07-13T13:48:46;35.60;25.10
80232;DHT22;70197;42.124;24.752;2023-07-13T13:51:21;35.40;24.60
80232;DHT22;70197;42.124;24.752;2023-07-13T13:53:48;35.50;24.60
80232;DHT22;70197;42.124;24.752;2023-07-13T13:56:18;35.40;25.10
80232;DHT22;70197;42.124;24.752;2023-07-13T13:58:44;35.10;24.80
80232;DHT22;70197;42.124;24.752;2023-07-13T14:01:21;35.00;25.70
80232;DHT22;70197;42.124;24.752;2023-07-13T14:03:48;34.70;24.60
80232;DHT22;70197;42.124;24.752;2023-07-13T14:06:15;34.90;25.30
80232;DHT22;70197;42.124;24.752;2023-07-13T14:08:42;35.10;26.00
80232;DHT22;70197;42.124;24.752;2023-07-13T14:11:15;35.30;25.70
80232;DHT22;70197;42.124;24.752;2023-07-13T14:13:48;35.50;25.70
80232;DHT22;70197;42.124;24.752;2023-07-13T14:16:19;35.50;25.30
80232;DHT22;70197;42.124;24.752;2023-07-13T14:18:47;35.50;25.80
80232;DHT22;70197;42.124;24.752;2023-07-13T14:21:20;35.50;25.90
80232;DHT22;70197;42.124;24.752;2023-07-13T14:23:47;35.60;26.00
80232;DHT22;70197;42.124;24.752;2023-07-13T14:26:24;35.60;24.20
80232;DHT22;70197;42.124;24.752;2023-07-13T14:28:54;35.40;24.00
80232;DHT22;70197;42.124;24.752;2023-07-13T14:31:22;35.50;24.70
80232;DHT22;70197;42.124;24.752;2023-07-13T14:33:48;35.50;25.20
80232;DHT22;70197;42.124;24.752;2023-07-13T14:38:45;35.60;24.30
80232;DHT22;70197;42.124;24.752;2023-07-13T14:41:11;35.50;24.10
80232;DHT22;70197;42.124;24.752;2023-07-13T14:43:37;35.60;23.70
80232;DHT22;70197;42.124;24.752;2023-07-13T14:46:02;35.50;23.80
80232;DHT22;70197;42.124;24.752;2023-07-13T14:48:30;35.60;24.20
80232;DHT22;70197;42.124;24.752;2023-07-13T14:50:57;35.60;24.10
80232;DHT22;70197;42.124;24.752;2023-07-13T14:53:25;35.60;24.60
80232;DHT22;70197;42.124;24.752;2023-07-13T14:55:51;35.60;24.50
80232;DHT22;70197;42.124;24.752;2023-07-13T14:58:16;35.60;24.10
80232;DHT22;70197;42.124;24.752;2023-07-13T15:00:42;35.60;24.10
80232;DHT22;70197;42.124;24.752;2023-07-13T15:03:18;35.60;24.80
80232;DHT22;70197;42.124;24.752;2023-07-13T15:05:45;35.60;25.30
80232;DHT22;70197;42.124;24.752;2023-07-13T15:08:11;35.60;25.20
80232;DHT22;70197;42.124;24.752;2023-07-13T15:10:37;35.60;25.00
80232;DHT22;70197;42.124;24.752;2023-07-13T15:13:21;35.60;24.70
80232;DHT22;70197;42.124;24.752;2023-07-13T15:15:50;35.60;24.60
80232;DHT22;70197;42.124;24.752;2023-07-13T15:18:19;35.50;24.00
80232;DHT22;70197;42.124;24.752;2023-07-13T15:20:47;35.50;24.00
80232;DHT22;70197;42.124;24.752;2023-07-13T15:23:14;35.50;24.70
80232;DHT22;70197;42.124;24.752;2023-07-13T15:25:41;35.50;24.90
80232;DHT22;70197;42.124;24.752;2023-07-13T15:28:07;35.50;24.70
80232;DHT22;70197;42.124;24.752;2023-07-13T15:30:46;35.50;25.60
80232;DHT22;70197;42.124;24.752;2023-07-13T15:33:21;35.50;26.10
80232;DHT22;70197;42.124;24.752;2023-07-13T15:35:48;35.40;26.60
80232;DHT22;70197;42.124;24.752;2023-07-13T15:38:19;35.40;27.10
80232;DHT22;70197;42.124;24.752;2023-07-13T15:40:49;35.40;27.10
80232;DHT22;70197;42.124;24.752;2023-07-13T15:43:16;35.30;26.10
80232;DHT22;70197;42.124;24.752;2023-07-13T15:45:42;35.20;26.30
80232;DHT22;70197;42.124;24.752;2023-07-13T15:48:21;35.10;26.30
80232;DHT22;70197;42.124;24.752;2023-07-13T15:50:55;35.20;27.10
80232;DHT22;70197;42.124;24.752;2023-07-13T15:53:29;35.10;26.00
80232;DHT22;70197;42.124;24.752;2023-07-13T15:55:55;35.10;26.70
80232;DHT22;70197;42.124;24.752;2023-07-13T15:58:21;35.10;27.40
80232;DHT22;70197;42.124;24.752;2023-07-13T16:00:47;35.10;28.80
80232;DHT22;70197;42.124;24.752;2023-07-13T16:03:19;35.10;28.70
80232;DHT22;70197;42.124;24.752;2023-07-13T16:05:46;35.10;28.60
80232;DHT22;70197;42.124;24.752;2023-07-13T16:08:24;35.10;28.40
80232;DHT22;70197;42.124;24.752;2023-07-13T16:10:51;35.00;28.40
80232;DHT22;70197;42.124;24.752;2023-07-13T16:13:19;35.00;28.50